• Join FlightAware (Why Join?)
  • Login
  • US Flag 
04:15AM EDT


 

Airport Tracker/Info


-or-


 

Live Flight TrackerFlight Track Log ✈ SWA1377 ✈ 12-Apr-2013 ✈ KLAS - KMDW

Flight Track Log - Related Links

Times and Time Zones

All times are in EDT time to prevent confusion due to time zone crossing. See the SWA1377 flight status page for this flight to view local times or setup timezone preferences in your user account.

Time Position Orientation Groundspeed Altitude Reporting Facility
EDT Latitude Longitude Course Direction KTS MPH feet Rate Location/Type
05:55PM 36.0842 -115.2747 277° West 246 283 6,100  Level Los Angeles Center
05:56PM 36.1014 -115.2872 330° Northwest 241 277 7,000 2,520 Climbing Los Angeles Center
05:57PM 36.1639 -115.2697 13° North 267 307 9,600 1,980 Climbing Los Angeles Center
05:58PM 36.1950 -115.1767 67° East 303 349 11,100 1,860 Climbing Los Angeles Center
05:59PM 36.1972 -115.0525 89° East 359 413 13,500 2,580 Climbing Los Angeles Center
06:00PM 36.2090 -114.0141 73° East  Level FlightAware Approximate
06:00PM 36.1986 -114.9225 89° East 376 433 16,500  Level Los Angeles Center
06:01PM 36.1997 -114.7628 89° East 386 444 20,100 2,820 Climbing Los Angeles Center
06:02PM 36.1978 -114.6256 91° East 398 458 22,400 2,100 Climbing Los Angeles Center
06:03PM 36.1956 -114.4814 91° East 415 478 24,500 1,920 Climbing Los Angeles Center
06:04PM 36.1936 -114.3328 91° East 428 493 26,500 1,680 Climbing Los Angeles Center
06:05PM 36.1981 -114.1817 88° East 437 503 28,100 1,440 Climbing Los Angeles Center
06:06PM 36.2197 -114.0272 80° East 450 518 29,500 1,800 Climbing Los Angeles Center
06:07PM 36.2406 -113.8417 82° East 455 524 31,900 1,980 Climbing Los Angeles Center
06:08PM 36.2592 -113.6900 81° East 448 516 33,600 1,380 Climbing Los Angeles Center
06:09PM 36.2756 -113.5383 82° East 445 512 34,800 1,020 Climbing Los Angeles Center
06:10PM 36.2936 -113.3836 82° East 451 519 35,800 960 Climbing Los Angeles Center
06:11PM 36.3286 -113.2325 74° East 452 520 36,800 540 Climbing Los Angeles Center
06:12PM 36.3739 -113.0881 69° East 453 521 37,000 60 Climbing Los Angeles Center
06:13PM 36.4294 -112.9156 68° East 452 520 37,000  Level Los Angeles Center
06:14PM 36.4750 -112.7719 68° East 451 519 37,000  Level Los Angeles Center
06:15PM 36.5197 -112.6283 69° East 449 517 37,000  Level Los Angeles Center
06:16PM 36.5647 -112.4842 69° East 449 517 37,000  Level Los Angeles Center
06:17PM 36.6103 -112.3389 69° East 452 520 37,000  Level Los Angeles Center
06:18PM 36.6644 -112.1631 69° East 454 522 37,000  Level Los Angeles Center
06:19PM 36.6831 -112.1050 68° East 455 524 37,000  Level Denver Center
06:20PM 36.7281 -111.9603 69° East 452 520 37,000  Level Denver Center
06:21PM 36.7722 -111.8128 69° East 455 524 37,000  Level Denver Center
06:22PM 36.8269 -111.6381 69° East 454 522 37,000  Level Denver Center
06:23PM 36.8714 -111.4917 69° East 453 521 37,000  Level Denver Center
06:24PM 36.9164 -111.3433 69° East 457 526 37,000  Level Denver Center
06:25PM 36.9578 -111.1981 70° East 451 519 37,000  Level Denver Center
06:26PM 37.0025 -111.0492 69° East 458 527 37,000  Level Denver Center
06:27PM 37.0558 -110.8694 70° East 461 531 37,000  Level Denver Center
06:28PM 37.0994 -110.7192 70° East 461 531 37,000  Level Denver Center
06:29PM 37.1433 -110.5678 70° East 465 535 37,000  Level Denver Center
06:30PM 37.1867 -110.4178 70° East 461 531 37,000  Level Denver Center
06:31PM 37.2314 -110.2658 70° East 464 534 37,000  Level Denver Center
06:32PM 37.2783 -110.1017 70° East 459 528 37,000  Level Denver Center
06:33PM 37.3189 -109.9567 71° East 458 527 37,000  Level Denver Center
06:34PM 37.3667 -109.7875 70° East 459 528 37,000  Level Denver Center
06:36PM 37.4094 -109.6403 70° East 465 535 37,000  Level Denver Center
06:37PM 37.4572 -109.4686 71° East 464 534 37,000  Level Denver Center
06:38PM 37.4989 -109.3200 70° East 468 539 37,000  Level Denver Center
06:39PM 37.5472 -109.1464 71° East 469 540 37,000  Level Denver Center
06:40PM 37.5881 -108.9961 71° East 473 544 37,000  Level Denver Center
06:41PM 37.6372 -108.8206 70° East 477 549 37,000  Level Denver Center
06:42PM 37.6778 -108.6689 71° East 477 549 37,000  Level Denver Center
06:43PM 37.7186 -108.5181 71° East 475 547 37,000  Level Denver Center
06:44PM 37.7653 -108.3433 71° East 472 543 37,000  Level Denver Center
06:45PM 37.8067 -108.1925 71° East 472 543 37,000  Level Denver Center
06:46PM 37.8522 -108.0169 72° East 470 541 37,000  Level Denver Center
06:47PM 37.8925 -107.8675 71° East 470 541 37,000  Level Denver Center
06:48PM 37.9386 -107.6914 72° East 471 542 37,000  Level Denver Center
06:49PM 37.9781 -107.5397 72° East 473 544 37,000  Level Denver Center
06:50PM 38.0236 -107.3625 72° East 472 543 37,000  Level Denver Center
06:51PM 38.0619 -107.2106 72° East 472 543 37,000  Level Denver Center
06:52PM 38.1064 -107.0433 71° East 472 543 37,000  Level Denver Center
06:53PM 38.1464 -106.8844 72° East 471 542 37,000  Level Denver Center
06:54PM 38.1881 -106.7158 72° East 469 540 37,000  Level Denver Center
06:55PM 38.2267 -106.5642 72° East 470 541 37,000  Level Denver Center
06:56PM 38.2644 -106.4108 73° East 469 540 37,000  Level Denver Center
06:57PM 38.3039 -106.2506 73° East 474 545 37,000  Level Denver Center
06:58PM 38.3478 -106.0731 72° East 479 551 37,000  Level Denver Center
06:59PM 38.3922 -105.8922 73° East 479 551 37,000  Level Denver Center
07:00PM 38.4311 -105.7289 73° East 480 552 37,000  Level Denver Center
07:02PM 38.4703 -105.5661 73° East 478 550 37,000  Level Denver Center
07:03PM 38.5175 -105.3725 73° East 485 558 37,100 660 Climbing Denver Center
07:04PM 38.5569 -105.2019 73° East 496 571 38,400 900 Climbing Denver Center
07:05PM 38.6028 -105.0086 73° East 486 559 39,000 240 Climbing Denver Center
07:06PM 38.6408 -104.8419 74° East 485 558 39,000  Level Denver Center
07:07PM 38.6792 -104.6781 73° East 481 554 39,000  Level Denver Center
07:08PM 38.7169 -104.5172 73° East 473 544 39,000  Level Denver Center
07:09PM 38.7539 -104.3547 74° East 473 544 39,000  Level Denver Center
07:10PM 38.7908 -104.1906 74° East 476 548 39,000  Level Denver Center
07:11PM 38.8319 -104.0072 74° East 476 548 39,000  Level Denver Center
07:12PM 38.8711 -103.8319 74° East 483 556 39,000  Level Denver Center
07:13PM 38.9092 -103.6614 74° East 492 566 39,000  Level Denver Center
07:14PM 38.9467 -103.4919 74° East 492 566 39,000  Level Denver Center
07:15PM 38.9825 -103.3225 75° East 489 563 39,000  Level Denver Center
07:16PM 39.0206 -103.1500 74° East 496 571 39,000  Level Denver Center
07:17PM 39.0561 -102.9803 75° East 491 565 39,000  Level Denver Center
07:18PM 39.1008 -102.7786 74° East 497 572 39,000  Level Denver Center
07:19PM 39.1347 -102.6133 75° East 496 571 39,000  Level Denver Center
07:20PM 39.1686 -102.4492 75° East 496 571 39,000  Level Denver Center
07:21PM 39.2092 -102.2550 75° East 500 575 39,000  Level Denver Center
07:22PM 39.2439 -102.0903 75° East 498 573 39,000  Level Denver Center
07:23PM 39.2836 -101.8947 75° East 503 579 39,000  Level Denver Center
07:24PM 39.3175 -101.7269 75° East 506 582 39,000  Level Denver Center
07:25PM 39.3564 -101.5356 75° East 511 588 39,000  Level Denver Center
07:26PM 39.3906 -101.3642 75° East 513 590 39,000  Level Denver Center
07:27PM 39.4303 -101.1653 75° East 513 590 39,000  Level Denver Center
07:28PM 39.4631 -100.9939 76° East 513 590 39,000  Level Denver Center
07:29PM 39.5008 -100.7944 76° East 513 590 39,000  Level Denver Center
07:30PM 39.5336 -100.6253 76° East 509 586 39,000  Level Denver Center
07:31PM 39.5719 -100.4297 76° East 505 581 39,000  Level Denver Center
07:33PM 39.6028 -100.2603 77° East 505 581 39,000  Level Denver Center
07:34PM 39.6397 -100.0639 76° East 504 580 39,000  Level Denver Center
07:35PM 39.6708 -99.8967 76° East 505 581 39,000  Level Denver Center
07:36PM 39.7022 -99.7222 77° East 498 573 39,000  Level Denver Center
07:37PM 39.7403 -99.5131 77° East 496 571 39,000  Level Denver Center
07:38PM 39.7728 -99.3397 76° East 497 572 39,000  Level Denver Center
07:39PM 39.8025 -99.1658 77° East 495 570 39,000  Level Denver Center
07:40PM 39.8342 -98.9911 77° East 497 572 39,000  Level Denver Center
07:41PM 39.8703 -98.7819 77° East 497 572 39,000  Level Minneapolis Center
07:42PM 39.9008 -98.6061 77° East 499 574 39,000  Level Minneapolis Center
07:43PM 39.9358 -98.3947 78° East 500 575 39,000  Level Minneapolis Center
07:44PM 39.9669 -98.2172 77° East 502 578 39,000  Level Minneapolis Center
07:45PM 40.0058 -98.0433 74° East 506 582 39,000  Level Minneapolis Center
07:46PM 40.1028 -97.9156 45° Northeast 502 578 39,000  Level Minneapolis Center
07:47PM 40.2367 -97.7939 35° Northeast 493 567 39,000  Level Minneapolis Center
07:49PM 40.2723 -97.6169 75° East  Level Estimated
07:49PM 40.4828 -97.5683 75° East 491 565 39,000  Level Minneapolis Center
07:50PM 40.5958 -97.4686 34° Northeast 490 564 39,000  Level Minneapolis Center
07:51PM 40.7069 -97.3694 34° Northeast 487 560 39,000  Level Minneapolis Center
07:53PM 40.8114 -97.2778 34° Northeast 484 557 39,000  Level Minneapolis Center
07:54PM 40.9236 -97.1800 33° Northeast 482 555 39,000  Level Minneapolis Center
07:55PM 41.0592 -97.0631 33° Northeast 483 556 39,000  Level Minneapolis Center
07:56PM 41.1714 -96.9653 33° Northeast 482 555 39,000  Level Minneapolis Center
07:57PM 41.2619 -96.8861 33° Northeast 483 556 39,000  Level Minneapolis Center
07:58PM 41.4000 -96.7672 33° Northeast 487 560 39,000  Level Minneapolis Center
07:59PM 41.4839 -96.6300 51° Northeast 497 572 39,000  Level Minneapolis Center
08:00PM 41.4836 -96.4464 90° East 495 570 39,000  Level Minneapolis Center
08:01PM 41.4794 -96.2558 92° East 499 574 39,000  Level Minneapolis Center
08:02PM 41.4767 -96.0711 91° East 498 573 39,000  Level Minneapolis Center
08:03PM 41.4728 -95.8856 92° East 500 575 39,000  Level Minneapolis Center
08:04PM 41.4675 -95.6633 92° East 499 574 39,000  Level Minneapolis Center
08:05PM 41.4622 -95.5075 93° East 498 573 39,000  Level Minneapolis Center
08:06PM 41.4575 -95.2856 92° East 499 574 39,000  Level Minneapolis Center
08:07PM 41.4525 -95.0975 92° East 505 581 39,000  Level Minneapolis Center
08:08PM 41.4472 -94.9089 92° East 508 585 39,000  Level Minneapolis Center
08:09PM 41.4400 -94.7197 93° East 512 589 39,000  Level Minneapolis Center
08:10PM 41.4331 -94.5311 93° East 512 589 39,000  Level Minneapolis Center
08:11PM 41.4269 -94.3422 92° East 510 587 39,000  Level Minneapolis Center
08:12PM 41.4183 -94.1617 94° East 508 585 39,000  Level Minneapolis Center
08:13PM 41.4097 -93.9383 93° East 506 582 39,000  Level Minneapolis Center
08:14PM 41.4031 -93.7533 93° East 504 580 39,000  Level Minneapolis Center
08:15PM 41.3950 -93.5692 93° East 501 577 39,000  Level Minneapolis Center
08:16PM 41.3889 -93.3844 92° East 502 578 39,000  Level Minneapolis Center
08:17PM 41.3808 -93.2014 93° East 499 574 39,000  Level Minneapolis Center
08:18PM 41.3733 -93.0194 93° East 496 571 39,000 -600 Level Minneapolis Center
08:19PM 41.3625 -92.7981 94° East 498 573 37,800 -1,080 Descending Minneapolis Center
08:20PM 41.3533 -92.6097 94° East 506 582 36,900 -900 Descending Minneapolis Center
08:21PM 41.3483 -92.5314 95° East 509 586 36,500 -960 Descending Chicago Center
08:22PM 41.3389 -92.3319 94° East 506 582 35,500 -1,020 Descending Chicago Center
08:23PM 41.3289 -92.1514 94° East 499 574 34,500 -1,020 Descending Chicago Center
08:24PM 41.3181 -91.9692 94° East 499 574 33,500 -1,080 Descending Chicago Center
08:25PM 41.3072 -91.7547 94° East 492 566 32,300 -1,080 Descending Chicago Center
08:26PM 41.2956 -91.5792 95° East 483 556 31,300 -1,020 Descending Chicago Center
08:27PM 41.2850 -91.4025 94° East 483 556 30,300 -1,020 Descending Chicago Center
08:28PM 41.2742 -91.2303 95° East 477 549 29,300 -1,020 Descending Chicago Center
08:29PM 41.2636 -91.0600 95° East 467 537 28,200 -1,680 Descending Chicago Center
08:30PM 41.2508 -90.8600 95° East 452 520 25,900 -2,040 Descending Chicago Center
08:31PM 41.2406 -90.6961 95° East 447 514 24,000 -1,260 Descending Chicago Center
08:32PM 41.2286 -90.5356 96° East 438 504 23,300 -780 Descending Chicago Center
08:33PM 41.2172 -90.3606 95° East 469 540 22,500 -900 Descending Chicago Center
08:34PM 41.2039 -90.1856 96° East 473 544 21,500 -1,020 Descending Chicago Center
08:35PM 41.1914 -90.0117 95° East 470 541 20,400 -1,020 Descending Chicago Center
08:36PM 41.1800 -89.8433 95° East 458 527 19,400 -1,020 Descending Chicago Center
08:37PM 41.1669 -89.6764 96° East 454 522 18,400 -1,080 Descending Chicago Center
08:38PM 41.1555 -89.6492 96° East  Level FlightAware Approximate
08:38PM 41.1675 -89.4783 90° East 446 513 17,200  Level Chicago Center
08:39PM 41.1789 -89.3158 85° East 437 503 16,200 -1,020 Descending Chicago Center
08:40PM 41.1878 -89.1592 86° East 430 495 15,200 -1,200 Descending Chicago Center
08:41PM 41.2292 -89.0267 67° East 402 463 13,800 -1,560 Descending Chicago Center
08:43PM 41.2831 -88.9078 59° Northeast 382 440 12,000 -1,800 Descending Chicago Center
08:44PM 41.3344 -88.7919 59° Northeast 370 426 10,100 -1,020 Descending Chicago Center
08:45PM 41.3839 -88.6819 59° Northeast 354 407 10,000 -960 Descending Chicago Center
08:46PM 41.4364 -88.5633 59° Northeast 319 367 8,200 -1,500 Descending Chicago Center
08:47PM 41.4769 -88.4653 61° Northeast 308 354 7,000 -600 Descending Chicago Center
08:48PM 41.5042 -88.3603 71° East 298 343 7,000  Level Chicago Center
08:49PM 41.5314 -88.2586 70° East 295 339 7,000 -300 Level Chicago Center
08:50PM 41.5544 -88.1686 71° East 273 314 6,400 -840 Descending Chicago Center
08:51PM 41.5775 -88.0803 71° East 258 297 5,300 -1,080 Descending Chicago Center
08:52PM 41.5828 -87.9869 86° East 255 293 4,300 -660 Descending Chicago Center
08:53PM 41.5844 -87.8928 89° East 253 291 4,000 -180 Descending Chicago Center
08:54PM 41.5847 -87.7942 90° East 233 268 4,000  Level Chicago Center
08:55PM 41.5858 -87.7178 89° East 215 247 4,000  Level Chicago Center
08:56PM 41.5833 -87.6428 93° East 208 239 4,000  Level Chicago Center
08:57PM 41.5669 -87.5689 106° East 208 239 4,000  Level Chicago Center
08:58PM 41.6036 -87.5189 46° Northeast 199 229 4,000  Level Chicago Center
08:59PM 41.6397 -87.5500 327° Northwest 173 199 4,000 -120 Level Chicago Center
09:00PM 41.6747 -87.5981 314° West 158 182 3,800 -540 Descending Chicago Center
09:01PM 41.7036 -87.6375 314° West 153 176 2,900 -900 Descending Chicago Center
09:02PM 41.7167 -87.6500 324° Northwest 146 168 2,500 -780 Descending Chicago TRACON
09:03PM 41.7500 -87.6833 323° Northwest 124 143 1,800 -720 Descending Chicago TRACON
09:04PM 41.7667 -87.7333 294° West 130 150 1,100 -720 Descending Chicago TRACON